Time;durP1;ratioP1;P1;durP2;ratioP2;P2;SDS_P1;SDS_P2;PMS_P1;PMS_P2;Temp;Humidity;BMP_temperature;BMP_pressure;BME280_temperature;BME280_humidity;BME280_pressure;Samples;Min_cycle;Max_cycle;Signal;HPM_P1;HPM_P2
2022/06/13 00:01:24;;;;;;;9.40;5.07;;;19.80;53.00;;;;;;5097003;28;20054;-90
2022/06/13 00:03:51;;;;;;;9.70;4.95;;;19.70;53.70;;;;;;5096540;28;20012;-91
2022/06/13 00:06:18;;;;;;;8.00;4.83;;;19.60;53.80;;;;;;5082956;28;20016;-90
2022/06/13 00:08:43;;;;;;;7.93;5.30;;;19.60;53.40;;;;;;5097297;28;20284;-90
2022/06/13 00:11:13;;;;;;;12.13;4.72;;;19.50;53.80;;;;;;5104005;28;20059;-90
2022/06/13 00:13:42;;;;;;;10.25;5.00;;;19.40;53.10;;;;;;5078621;28;20881;-90
2022/06/13 00:16:08;;;;;;;8.40;5.35;;;19.40;53.50;;;;;;5097922;28;20528;-91
2022/06/13 00:18:35;;;;;;;12.77;4.97;;;19.30;53.50;;;;;;5085937;28;20034;-91
2022/06/13 00:21:01;;;;;;;11.70;5.27;;;19.30;53.70;;;;;;5097464;28;20032;-89
2022/06/13 00:23:27;;;;;;;9.73;5.45;;;19.20;54.20;;;;;;5077828;28;20031;-90
2022/06/13 00:25:53;;;;;;;11.95;4.90;;;19.10;54.10;;;;;;5095456;28;20028;-90
2022/06/13 00:28:18;;;;;;;9.80;4.60;;;19.00;54.40;;;;;;5095084;28;20091;-89
2022/06/13 00:30:44;;;;;;;12.27;5.70;;;19.00;54.50;;;;;;5095145;28;20031;-89
2022/06/13 00:33:10;;;;;;;9.60;4.90;;;18.90;54.30;;;;;;5094613;28;20020;-89
2022/06/13 00:35:36;;;;;;;13.95;4.70;;;18.80;54.30;;;;;;5090987;28;20016;-88
2022/06/13 00:38:02;;;;;;;9.00;5.63;;;18.80;54.70;;;;;;5076286;28;20025;-88
2022/06/13 00:40:30;;;;;;;12.60;5.22;;;18.70;54.80;;;;;;5076362;28;20103;-90
2022/06/13 00:42:58;;;;;;;12.90;5.28;;;18.70;54.70;;;;;;5095200;28;20024;-92
2022/06/13 00:45:30;;;;;;;7.72;4.78;;;18.70;54.50;;;;;;5095350;28;20024;-88
2022/06/13 00:47:56;;;;;;;9.35;4.90;;;18.70;55.00;;;;;;5095186;28;20020;-89
2022/06/13 00:50:28;;;;;;;11.63;4.95;;;18.70;54.70;;;;;;5095985;28;20084;-89
2022/06/13 00:53:02;;;;;;;10.40;5.07;;;18.60;55.00;;;;;;5041972;28;20052;-88
2022/06/13 00:56:00;;;;;;;11.52;5.38;;;18.60;55.40;;;;;;5074383;28;20057;-88
2022/06/13 00:58:29;;;;;;;9.57;5.25;;;18.60;55.10;;;;;;5044767;28;20547;-86
2022/06/13 01:00:56;;;;;;;8.65;4.85;;;18.60;55.70;;;;;;5053745;28;20021;-86
2022/06/13 01:03:22;;;;;;;;;;;18.60;55.40;;;;;;5053552;28;20082;-86
2022/06/13 01:05:53;;;;;;;8.00;4.65;;;18.60;55.10;;;;;;5053012;28;20380;-86
2022/06/13 01:08:22;;;;;;;9.50;5.13;;;18.50;55.50;;;;;;5052982;28;20033;-84
2022/06/13 01:14:34;;;;;;;9.98;5.70;;;18.40;56.60;;;;;;5035643;28;20033;-88
2022/06/13 01:17:18;;;;;;;7.75;4.93;;;18.40;56.10;;;;;;4988187;28;20037;-89
2022/06/13 01:20:02;;;;;;;11.45;5.22;;;18.30;57.20;;;;;;5009089;28;20046;-88
2022/06/13 01:23:11;;;;;;;12.60;5.50;;;18.30;56.90;;;;;;5015325;28;20034;-87
2022/06/13 01:25:55;;;;;;;11.82;6.03;;;18.30;57.10;;;;;;4994415;28;20465;-86
2022/06/13 01:28:45;;;;;;;10.75;5.55;;;18.30;56.90;;;;;;4993944;28;20034;-87
2022/06/13 01:31:14;;;;;;;9.95;5.30;;;18.30;57.20;;;;;;4978594;28;20070;-87
2022/06/13 01:34:13;;;;;;;12.32;5.32;;;18.20;57.30;;;;;;4992771;28;20338;-88
2022/06/13 01:37:00;;;;;;;10.95;5.93;;;18.20;58.30;;;;;;4992174;28;20082;-88
2022/06/13 01:39:36;;;;;;;;;;;18.20;58.10;;;;;;4991865;28;20030;-88
2022/06/13 01:42:10;;;;;;;11.25;5.32;;;18.20;57.60;;;;;;4991666;28;19942;-88
2022/06/13 01:45:05;;;;;;;10.07;5.43;;;18.10;57.90;;;;;;4991476;28;20038;-89
2022/06/13 01:47:56;;;;;;;11.57;5.38;;;18.10;58.30;;;;;;4982654;28;20142;-88
2022/06/13 01:51:01;;;;;;;10.95;5.43;;;18.10;58.30;;;;;;4989490;28;20041;-86
2022/06/13 01:54:02;;;;;;;9.32;4.97;;;18.20;58.40;;;;;;5072672;28;20144;-88
2022/06/13 01:56:38;;;;;;;15.07;6.05;;;18.20;58.60;;;;;;5052736;28;20032;-87
2022/06/13 01:59:40;;;;;;;11.27;6.13;;;18.20;58.70;;;;;;5078918;28;20062;-88
2022/06/13 02:02:10;;;;;;;9.57;5.43;;;18.30;58.60;;;;;;5084180;28;20031;-87
2022/06/13 02:04:45;;;;;;;10.80;6.25;;;18.40;59.00;;;;;;5067627;28;20028;-88
2022/06/13 02:07:18;;;;;;;10.30;5.70;;;18.40;58.40;;;;;;5072378;28;20024;-87
2022/06/13 02:10:00;;;;;;;10.00;5.38;;;18.50;58.70;;;;;;5072649;28;20036;-88
2022/06/13 02:12:31;;;;;;;11.70;5.93;;;18.50;58.80;;;;;;5073477;28;20092;-87
2022/06/13 02:15:07;;;;;;;11.65;5.80;;;18.50;58.90;;;;;;5072863;28;20020;-87
2022/06/13 02:17:38;;;;;;;12.63;4.93;;;18.60;59.30;;;;;;5072392;28;20059;-88
2022/06/13 02:20:15;;;;;;;8.70;5.20;;;18.60;59.00;;;;;;5055017;28;20020;-87
2022/06/13 02:22:42;;;;;;;11.85;5.60;;;18.60;59.00;;;;;;5072056;28;20017;-88
2022/06/13 02:25:31;;;;;;;13.65;5.10;;;18.70;58.80;;;;;;5072712;28;20028;-88
2022/06/13 02:28:18;;;;;;;10.20;5.40;;;18.80;59.10;;;;;;5055701;28;20382;-87
2022/06/13 02:30:54;;;;;;;8.65;5.78;;;18.80;59.20;;;;;;5066348;28;20043;-86
2022/06/13 02:33:29;;;;;;;16.30;6.27;;;18.90;59.30;;;;;;5080878;28;20028;-88
2022/06/13 02:36:16;;;;;;;11.05;5.78;;;18.90;59.50;;;;;;5053917;28;20039;-88
2022/06/13 02:39:01;;;;;;;11.27;5.70;;;18.90;59.70;;;;;;5072080;28;20103;-86
2022/06/13 02:41:36;;;;;;;12.57;5.43;;;19.00;59.30;;;;;;5058200;28;20032;-86
2022/06/13 02:44:33;;;;;;;9.07;5.45;;;18.90;59.90;;;;;;5072254;28;20035;-89
2022/06/13 02:47:09;;;;;;;11.82;5.32;;;18.90;60.30;;;;;;5053379;28;20047;-88
2022/06/13 02:49:54;;;;;;;12.55;5.40;;;18.80;60.30;;;;;;5072165;28;20036;-88
2022/06/13 02:52:27;;;;;;;9.73;5.90;;;18.80;61.30;;;;;;5073476;28;20057;-87
2022/06/13 02:54:57;;;;;;;8.40;5.13;;;18.70;60.80;;;;;;5057197;28;20078;-88
2022/06/13 02:57:29;;;;;;;9.68;5.25;;;18.80;60.90;;;;;;5072466;28;20029;-86
2022/06/13 03:00:18;;;;;;;11.68;5.60;;;18.70;61.30;;;;;;5045154;28;20024;-88
2022/06/13 03:03:00;;;;;;;11.80;5.20;;;18.70;61.80;;;;;;5071973;28;20024;-86
2022/06/13 03:05:51;;;;;;;11.45;4.78;;;18.80;61.70;;;;;;5048236;28;20029;-86
2022/06/13 03:08:35;;;;;;;13.55;5.85;;;18.80;61.80;;;;;;5071696;28;20025;-92
2022/06/13 03:11:05;;;;;;;7.47;5.35;;;18.80;62.00;;;;;;5039471;28;20048;-90
2022/06/13 03:13:40;;;;;;;11.15;5.00;;;18.80;62.50;;;;;;5053026;28;20032;-88
2022/06/13 03:16:19;;;;;;;13.90;5.35;;;18.80;62.60;;;;;;5034940;28;20029;-91
2022/06/13 03:18:48;;;;;;;18.25;5.57;;;19.00;62.70;;;;;;5043964;28;20449;-91
2022/06/13 03:21:21;;;;;;;10.25;5.07;;;19.20;62.10;;;;;;5047484;28;20029;-91
2022/06/13 03:23:52;;;;;;;9.10;5.20;;;19.30;61.80;;;;;;5037752;28;20100;-90
2022/06/13 03:26:38;;;;;;;9.23;5.18;;;19.40;61.60;;;;;;5043954;28;20025;-88
2022/06/13 03:29:26;;;;;;;14.35;5.22;;;19.50;61.10;;;;;;5054620;28;20512;-89
2022/06/13 03:31:57;;;;;;;12.13;4.95;;;19.50;61.30;;;;;;5094445;28;20543;-89
2022/06/13 03:34:31;;;;;;;8.93;5.40;;;19.50;62.00;;;;;;5088807;28;20030;-89
2022/06/13 03:37:09;;;;;;;12.48;6.00;;;19.60;62.00;;;;;;5099829;28;20013;-89
2022/06/13 03:39:52;;;;;;;11.55;5.32;;;19.70;61.70;;;;;;5071295;28;20457;-89
2022/06/13 03:42:19;;;;;;;9.93;5.40;;;19.70;61.40;;;;;;5079584;28;20029;-90
2022/06/13 03:44:50;;;;;;;10.45;4.60;;;19.70;61.80;;;;;;5075895;28;20191;-88
2022/06/13 03:47:26;;;;;;;13.65;5.50;;;19.70;61.90;;;;;;5057355;28;20174;-91
2022/06/13 03:50:00;;;;;;;9.20;4.78;;;19.70;62.40;;;;;;5060875;28;20021;-88
2022/06/13 03:52:30;;;;;;;9.18;5.05;;;19.70;62.50;;;;;;5057588;28;20414;-90
2022/06/13 03:55:09;;;;;;;7.88;4.60;;;19.90;62.20;;;;;;5075057;28;20020;-90
2022/06/13 03:57:54;;;;;;;9.65;5.18;;;19.90;62.20;;;;;;5064127;28;20107;-89
2022/06/13 04:00:25;;;;;;;6.88;5.07;;;19.90;62.20;;;;;;5029218;28;20111;-85
2022/06/13 04:02:53;;;;;;;10.10;5.00;;;20.10;62.10;;;;;;5073098;28;20474;-88
2022/06/13 04:05:56;;;;;;;8.80;4.82;;;20.30;61.80;;;;;;5046222;28;20033;-86
2022/06/13 04:08:22;;;;;;;9.45;5.28;;;20.40;61.30;;;;;;5055976;28;20033;-87
2022/06/13 04:11:09;;;;;;;10.25;5.30;;;20.40;61.30;;;;;;5056726;28;20116;-86
2022/06/13 04:13:51;;;;;;;10.02;5.10;;;20.30;62.10;;;;;;5061322;28;20662;-86
2022/06/13 04:16:48;;;;;;;10.32;5.43;;;20.40;61.50;;;;;;5083709;28;20036;-89
2022/06/13 04:19:14;;;;;;;;;;;20.50;61.30;;;;;;5068518;28;20101;-89
2022/06/13 04:22:01;;;;;;;10.77;5.10;;;20.50;61.30;;;;;;5091887;28;20317;-89
2022/06/13 04:25:10;;;;;;;11.57;5.13;;;20.40;61.80;;;;;;5071243;28;20031;-88
2022/06/13 04:27:59;;;;;;;10.68;5.95;;;20.40;62.10;;;;;;5059079;28;20490;-89
2022/06/13 04:30:28;;;;;;;6.75;4.85;;;20.60;62.10;;;;;;5060792;28;20069;-89
2022/06/13 04:33:03;;;;;;;11.98;6.57;;;20.70;62.20;;;;;;5050712;28;20021;-89
2022/06/13 04:35:31;;;;;;;14.13;5.97;;;21.00;61.70;;;;;;5066285;28;20075;-89
2022/06/13 04:38:00;;;;;;;11.32;6.35;;;21.30;61.10;;;;;;5044955;28;20107;-87
2022/06/13 04:40:28;;;;;;;17.88;6.88;;;21.60;60.40;;;;;;5073964;28;20070;-88
2022/06/13 04:42:55;;;;;;;10.40;5.70;;;22.10;59.60;;;;;;5075090;28;20017;-88
2022/06/13 04:45:32;;;;;;;13.68;6.13;;;22.60;58.80;;;;;;5065773;28;20544;-88
2022/06/13 04:48:00;;;;;;;11.60;5.43;;;23.00;57.60;;;;;;5057934;28;20063;-87
2022/06/13 04:50:41;;;;;;;12.18;6.32;;;23.30;57.10;;;;;;5082930;28;20052;-87
2022/06/13 04:53:37;;;;;;;15.35;6.18;;;23.40;56.30;;;;;;5091265;28;20528;-88
2022/06/13 04:56:04;;;;;;;8.30;6.78;;;23.60;55.50;;;;;;5076006;28;20032;-89
2022/06/13 04:58:35;;;;;;;11.80;6.72;;;24.00;55.20;;;;;;5080607;28;20036;-89
2022/06/13 05:01:24;;;;;;;9.05;6.45;;;24.10;55.20;;;;;;5082086;28;20024;-85
2022/06/13 05:03:51;;;;;;;11.23;6.05;;;24.30;54.80;;;;;;5051344;28;20025;-86
2022/06/13 05:06:24;;;;;;;10.88;6.20;;;24.60;54.10;;;;;;5055433;28;20025;-86
2022/06/13 05:08:58;;;;;;;13.63;6.50;;;24.70;53.70;;;;;;5067731;28;20028;-86
2022/06/13 05:11:28;;;;;;;14.50;6.30;;;24.90;53.60;;;;;;5073391;28;20067;-86
2022/06/13 05:14:00;;;;;;;12.05;6.68;;;24.70;53.30;;;;;;5074891;28;20104;-88
2022/06/13 05:16:46;;;;;;;9.48;6.20;;;24.40;54.20;;;;;;5076121;28;20043;-88
2022/06/13 05:19:37;;;;;;;9.77;6.35;;;24.20;55.10;;;;;;5073370;28;20317;-90
2022/06/13 05:22:17;;;;;;;10.68;6.82;;;24.60;54.80;;;;;;5056303;28;20028;-90
2022/06/13 05:24:51;;;;;;;10.77;6.25;;;25.20;53.80;;;;;;5079243;28;20020;-88
2022/06/13 05:27:17;;;;;;;12.93;6.20;;;26.10;52.10;;;;;;5078688;28;20051;-87
2022/06/13 05:29:43;;;;;;;11.48;6.10;;;26.90;50.30;;;;;;5086335;28;20466;-89
2022/06/13 05:32:11;;;;;;;9.25;5.55;;;27.10;49.60;;;;;;5056547;28;20029;-87
2022/06/13 05:34:41;;;;;;;10.63;6.47;;;27.70;49.00;;;;;;5042082;28;20017;-89
2022/06/13 05:37:08;;;;;;;8.63;5.45;;;28.40;48.30;;;;;;5073402;28;20020;-86
2022/06/13 05:39:35;;;;;;;12.27;5.00;;;28.90;46.70;;;;;;5072989;28;20079;-86
2022/06/13 05:42:02;;;;;;;7.72;5.63;;;28.80;46.80;;;;;;5072779;28;20024;-87
2022/06/13 05:44:27;;;;;;;6.45;5.03;;;28.70;47.00;;;;;;5073898;28;20024;-87
2022/06/13 05:46:53;;;;;;;10.25;4.65;;;28.20;47.60;;;;;;5057313;28;20487;-87
2022/06/13 05:49:19;;;;;;;5.25;4.57;;;27.30;49.70;;;;;;5083367;28;20037;-85
2022/06/13 05:51:46;;;;;;;5.73;4.60;;;27.20;49.80;;;;;;5075534;28;20070;-89
2022/06/13 05:54:14;;;;;;;8.23;4.53;;;27.60;50.40;;;;;;5066982;28;20481;-89
2022/06/13 05:56:40;;;;;;;9.27;4.68;;;28.90;48.40;;;;;;5076882;28;20265;-89
2022/06/13 05:59:07;;;;;;;8.40;4.28;;;29.80;46.10;;;;;;5055679;28;20116;-88
2022/06/13 06:01:35;;;;;;;13.80;4.68;;;30.10;46.40;;;;;;5073383;28;20032;-86
2022/06/13 06:04:02;;;;;;;7.55;4.70;;;30.90;44.70;;;;;;5072911;28;20070;-85
2022/06/13 06:06:29;;;;;;;;;;;30.40;44.50;;;;;;5078903;28;20513;-87
2022/06/13 06:08:55;;;;;;;;;;;29.90;45.80;;;;;;5062220;28;19959;-91
2022/06/13 06:11:22;;;;;;;5.88;4.43;;;28.80;46.90;;;;;;5079462;28;19904;-85
2022/06/13 06:13:48;;;;;;;6.80;4.50;;;28.40;48.60;;;;;;5062096;28;20405;-85
2022/06/13 06:16:16;;;;;;;6.55;4.60;;;28.10;48.90;;;;;;5077637;28;20029;-88
2022/06/13 06:18:43;;;;;;;4.55;4.03;;;27.50;50.20;;;;;;5076993;28;20020;-89
2022/06/13 06:21:09;;;;;;;6.18;4.20;;;26.80;51.90;;;;;;5071057;28;20060;-88
2022/06/13 06:23:35;;;;;;;7.60;5.03;;;26.70;52.80;;;;;;5055264;28;20493;-86
2022/06/13 06:26:02;;;;;;;10.95;5.18;;;26.70;53.00;;;;;;5076422;28;20111;-87
2022/06/13 06:28:29;;;;;;;5.85;5.25;;;26.40;53.40;;;;;;5076535;28;20067;-88
2022/06/13 06:31:05;;;;;;;8.10;5.78;;;26.20;54.10;;;;;;5076073;28;20029;-87
2022/06/13 06:33:34;;;;;;;8.93;5.65;;;26.40;54.20;;;;;;5076667;28;20021;-87
2022/06/13 06:36:00;;;;;;;6.88;5.25;;;26.10;54.90;;;;;;5075333;28;20032;-86
2022/06/13 06:38:27;;;;;;;10.77;5.68;;;26.10;55.90;;;;;;5076250;28;20036;-87
2022/06/13 06:40:53;;;;;;;;;;;26.20;55.40;;;;;;5077548;28;20024;-88
2022/06/13 06:43:19;;;;;;;9.00;6.23;;;26.40;55.00;;;;;;5059730;28;19938;-87
2022/06/13 06:45:46;;;;;;;6.03;5.38;;;26.10;55.50;;;;;;5063542;28;20111;-85
2022/06/13 06:48:23;;;;;;;9.07;5.63;;;25.80;56.20;;;;;;5061144;28;20043;-89
2022/06/13 06:50:51;;;;;;;9.50;6.38;;;25.60;57.30;;;;;;5078895;28;20036;-89
2022/06/13 06:53:20;;;;;;;9.43;6.25;;;25.80;57.20;;;;;;5081145;28;20051;-88
2022/06/13 07:01:18;;;;;;;9.38;5.35;;;24.90;58.50;;;;;;5079240;28;20039;-86
2022/06/13 07:03:44;;;;;;;10.50;5.93;;;24.50;59.70;;;;;;5079676;28;20024;-86
2022/06/13 07:06:11;;;;;;;11.45;5.93;;;24.20;60.70;;;;;;5083390;28;20039;-86
2022/06/13 07:08:37;;;;;;;8.93;6.13;;;24.30;61.00;;;;;;5066214;28;20025;-87
2022/06/13 07:13:51;;;;;;;14.68;4.95;;;25.00;59.50;;;;;;5069003;28;20046;-87
2022/06/13 07:16:17;;;;;;;7.80;5.30;;;24.90;59.30;;;;;;5063345;28;20032;-89
2022/06/13 07:18:45;;;;;;;7.63;5.35;;;24.80;59.70;;;;;;5062481;28;20458;-87
2022/06/13 07:21:11;;;;;;;7.93;5.38;;;24.80;60.10;;;;;;5080795;28;20047;-89
2022/06/13 07:23:37;;;;;;;10.13;5.23;;;25.00;59.30;;;;;;5080497;28;20392;-86
2022/06/13 07:26:03;;;;;;;12.60;6.13;;;25.70;58.70;;;;;;5062950;28;20265;-89
2022/06/13 07:28:29;;;;;;;9.00;5.57;;;26.50;56.80;;;;;;5063672;28;20056;-87
2022/06/13 07:30:56;;;;;;;7.75;4.93;;;26.70;55.60;;;;;;5090305;28;20029;-88
2022/06/13 07:33:23;;;;;;;6.63;5.18;;;27.90;54.60;;;;;;5084017;28;20021;-89
2022/06/13 07:35:48;;;;;;;9.57;4.85;;;29.20;51.70;;;;;;5079780;28;20032;-89
2022/06/13 07:38:17;;;;;;;7.43;5.03;;;29.90;49.80;;;;;;5080108;28;20024;-88
2022/06/13 07:40:49;;;;;;;8.70;5.25;;;30.50;49.30;;;;;;5079266;28;20027;-87
2022/06/13 07:43:36;;;;;;;5.55;5.05;;;32.00;47.60;;;;;;5062263;28;20029;-87
2022/06/13 07:46:05;;;;;;;8.38;5.07;;;32.80;45.70;;;;;;5079256;28;20025;-86
2022/06/13 07:48:31;;;;;;;6.80;4.50;;;32.50;44.60;;;;;;5078732;28;20023;-86
2022/06/13 07:50:58;;;;;;;10.95;4.93;;;32.00;45.50;;;;;;5093645;28;20047;-85
2022/06/13 07:53:24;;;;;;;;;;;31.40;45.60;;;;;;5079689;28;20031;-84
2022/06/13 07:55:50;;;;;;;9.17;5.50;;;30.40;46.80;;;;;;5061817;28;19908;-84
2022/06/13 07:58:31;;;;;;;12.73;5.40;;;28.90;48.80;;;;;;5079479;28;20036;-85
2022/06/13 08:00:58;;;;;;;9.38;5.65;;;28.00;51.20;;;;;;5063121;28;20071;-85
2022/06/13 08:03:28;;;;;;;7.68;5.28;;;27.50;52.10;;;;;;5077510;28;20036;-83
2022/06/13 08:05:55;;;;;;;7.22;5.05;;;27.40;52.40;;;;;;5058754;28;20036;-83
2022/06/13 08:08:40;;;;;;;5.97;5.07;;;27.10;53.10;;;;;;5078623;28;20040;-85
2022/06/13 08:11:10;;;;;;;6.95;4.70;;;;;;;;;;5063514;28;20390;-85
2022/06/13 08:13:40;;;;;;;6.43;5.20;;;;;;;;;;5082655;28;20017;-84
2022/06/13 08:16:07;;;;;;;5.55;4.25;;;;;;;;;;5097362;28;20024;-86
2022/06/13 08:18:34;;;;;;;9.20;4.53;;;26.60;53.70;;;;;;5082281;28;20021;-83
2022/06/13 08:21:01;;;;;;;7.38;4.57;;;26.30;54.40;;;;;;5082485;28;20130;-86
2022/06/13 08:23:27;;;;;;;5.72;4.72;;;26.20;54.40;;;;;;5083030;28;20027;-84
2022/06/13 08:25:53;;;;;;;9.48;4.95;;;26.10;54.70;;;;;;5079985;28;20481;-85
2022/06/13 08:28:27;;;;;;;6.97;4.30;;;25.90;54.90;;;;;;5061782;28;20111;-88
2022/06/13 08:30:58;;;;;;;6.40;4.65;;;25.80;55.00;;;;;;5075888;28;20458;-85
2022/06/13 08:33:24;;;;;;;7.65;4.30;;;25.80;54.80;;;;;;5075987;28;20032;-86
2022/06/13 08:35:50;;;;;;;7.05;4.78;;;25.60;54.80;;;;;;5078814;28;20032;-82
2022/06/13 08:38:17;;;;;;;4.93;4.40;;;25.40;55.60;;;;;;5079042;28;20016;-83
2022/06/13 08:41:03;;;;;;;6.85;4.38;;;25.20;56.20;;;;;;5061341;28;20155;-86
2022/06/13 08:43:39;;;;;;;10.38;5.55;;;25.10;56.20;;;;;;5087414;28;20024;-84
2022/06/13 08:46:14;;;;;;;9.55;5.32;;;;;;;;;;5093524;28;20032;-89
2022/06/13 08:48:43;;;;;;;10.70;4.28;;;;;;;;;;5082199;28;20775;-86
2022/06/13 08:51:12;;;;;;;6.10;4.70;;;;;;;;;;5097056;28;20816;-85
2022/06/13 08:53:38;;;;;;;5.18;3.88;;;;;;;;;;5093216;28;20025;-85
2022/06/13 08:56:13;;;;;;;7.22;5.25;;;;;;;;;;5059042;28;20031;-87
2022/06/13 08:58:43;;;;;;;4.95;4.30;;;;;;;;;;5080340;28;20021;-87
2022/06/13 09:01:15;;;;;;;8.18;4.63;;;;;;;;;;5048135;28;20020;-90
2022/06/13 09:04:00;;;;;;;9.13;4.85;;;;;;;;;;5103115;28;20029;-92
2022/06/13 09:06:41;;;;;;;8.65;4.20;;;;;;;;;;5074016;28;20026;-92
2022/06/13 09:09:18;;;;;;;5.47;4.30;;;;;;;;;;5105016;28;20071;-95
2022/06/13 09:11:56;;;;;;;6.32;3.90;;;;;;;;;;5074912;28;20025;-93
2022/06/13 09:14:39;;;;;;;5.63;4.68;;;;;;;;;;5070075;28;20028;-94
2022/06/13 09:17:23;;;;;;;7.40;4.40;;;;;;;;;;5090820;28;20618;-92
2022/06/13 09:20:02;;;;;;;6.03;4.30;;;;;;;;;;5111316;28;20059;-91
2022/06/13 09:22:38;;;;;;;14.35;6.57;;;;;;;;;;5103427;28;20031;-93
2022/06/13 09:25:12;;;;;;;7.10;4.72;;;;;;;;;;5053609;28;20039;-94
2022/06/13 09:27:45;;;;;;;4.75;4.28;;;;;;;;;;5086908;28;20020;-91
2022/06/13 09:30:16;;;;;;;8.13;4.65;;;;;;;;;;5071152;28;20033;-92
2022/06/13 09:32:53;;;;;;;4.40;4.00;;;;;;;;;;5088705;28;20017;-93
2022/06/13 09:35:21;;;;;;;7.70;4.60;;;;;;;;;;5065288;28;20071;-91
2022/06/13 09:37:53;;;;;;;4.75;4.07;;;;;;;;;;5081404;28;20434;-95
2022/06/13 09:40:25;;;;;;;7.43;4.63;;;;;;;;;;5083560;28;20044;-92
2022/06/13 09:42:51;;;;;;;5.93;4.82;;;;;;;;;;5079394;28;20016;-90
2022/06/13 09:45:32;;;;;;;6.90;5.13;;;;;;;;;;5074646;28;20465;-89
2022/06/13 09:48:13;;;;;;;6.68;5.00;;;;;;;;;;5073976;28;20107;-89
2022/06/13 09:50:43;;;;;;;8.48;5.50;;;;;;;;;;5061781;28;20143;-91
2022/06/13 09:53:12;;;;;;;7.97;5.32;;;;;;;;;;5078491;28;20165;-94
2022/06/13 09:56:10;;;;;;;8.52;5.70;;;;;;;;;;5059066;28;20029;-90
2022/06/13 09:58:54;;;;;;;7.22;5.35;;;;;;;;;;5044700;28;20032;-90
2022/06/13 10:01:24;;;;;;;12.98;5.22;;;;;;;;;;5086675;28;20074;-92
2022/06/13 10:03:53;;;;;;;10.60;5.93;;;;;;;;;;5080415;28;20478;-92
2022/06/13 10:06:43;;;;;;;7.18;5.57;;;25.00;56.70;;;;;;5067083;28;20059;-92
2022/06/13 10:09:37;;;;;;;14.43;5.57;;;24.70;60.20;;;;;;5075200;28;20087;-91
2022/06/13 10:12:03;;;;;;;7.22;4.93;;;24.60;60.10;;;;;;5040825;28;20638;-85
2022/06/13 10:14:53;;;;;;;4.60;4.00;;;24.60;60.30;;;;;;5067232;28;20029;-84
2022/06/13 10:17:37;;;;;;;12.02;4.40;;;24.40;60.60;;;;;;5058136;28;20357;-85
2022/06/13 10:20:15;;;;;;;9.73;4.90;;;24.30;61.40;;;;;;5046631;28;20040;-86
2022/06/13 10:22:56;;;;;;;9.10;4.38;;;24.40;62.10;;;;;;5061279;28;20028;-92
2022/06/13 10:26:00;;;;;;;13.13;4.70;;;24.60;61.70;;;;;;5058415;28;20043;-88
2022/06/13 10:29:00;;;;;;;10.50;4.78;;;24.80;61.40;;;;;;5023908;28;20036;-85
2022/06/13 10:31:56;;;;;;;9.68;4.10;;;25.10;61.10;;;;;;5034172;28;20029;-84
2022/06/13 10:34:45;;;;;;;8.13;4.30;;;25.70;60.10;;;;;;5051766;28;20048;-82
2022/06/13 10:37:21;;;;;;;11.00;4.10;;;25.90;59.90;;;;;;5048483;28;20060;-82
2022/06/13 10:39:53;;;;;;;19.80;6.93;;;26.20;60.10;;;;;;5039279;28;20041;-83
2022/06/13 10:42:24;;;;;;;4.65;4.13;;;26.50;59.70;;;;;;5026215;28;20202;-86
2022/06/13 10:44:51;;;;;;;7.85;5.47;;;26.80;57.90;;;;;;5036828;28;20076;-85
2022/06/13 10:50:35;;;;;;;7.97;4.22;;;26.60;59.00;;;;;;5071264;28;20075;-84
2022/06/13 10:53:06;;;;;;;7.38;4.35;;;26.70;58.90;;;;;;5079666;28;20045;-83
2022/06/13 10:55:39;;;;;;;5.88;4.25;;;26.70;58.10;;;;;;5076909;28;20032;-84
2022/06/13 10:58:33;;;;;;;9.50;5.40;;;26.60;58.40;;;;;;5059573;28;20043;-82
2022/06/13 11:01:07;;;;;;;9.45;5.35;;;26.70;57.90;;;;;;5073027;28;20025;-82
2022/06/13 11:03:34;;;;;;;8.82;4.88;;;26.80;58.00;;;;;;5073080;28;20017;-82
2022/06/13 11:06:15;;;;;;;11.75;5.63;;;27.00;57.50;;;;;;5059038;28;20078;-83
2022/06/13 11:08:42;;;;;;;9.20;5.15;;;27.10;57.00;;;;;;5076208;28;20101;-83
2022/06/13 11:11:15;;;;;;;5.90;4.53;;;27.00;57.10;;;;;;5058154;28;20036;-88
2022/06/13 11:13:43;;;;;;;6.22;5.10;;;26.90;56.20;;;;;;5076945;28;20017;-86
2022/06/13 11:22:37;;;;;;;7.55;5.25;;;26.70;56.80;;;;;;4993520;28;20116;-84
2022/06/13 11:25:14;;;;;;;6.93;4.90;;;26.10;57.30;;;;;;4993478;28;20124;-83
2022/06/13 11:27:40;;;;;;;;;;;25.70;58.20;;;;;;5012782;28;20108;-86
2022/06/13 11:30:27;;;;;;;6.57;4.65;;;25.40;58.50;;;;;;4995651;28;19976;-84
2022/06/13 11:33:01;;;;;;;10.93;5.70;;;25.40;59.60;;;;;;5025834;28;20041;-85
2022/06/13 11:35:33;;;;;;;5.55;4.15;;;25.40;59.40;;;;;;5008473;28;20026;-83
2022/06/13 11:38:29;;;;;;;8.65;4.75;;;25.10;59.40;;;;;;5010154;28;20029;-89
2022/06/13 11:41:11;;;;;;;7.63;3.92;;;24.80;59.30;;;;;;5000267;28;20041;-85
2022/06/13 11:43:54;;;;;;;4.78;4.28;;;24.70;58.60;;;;;;5023481;28;20128;-83
2022/06/13 11:46:33;;;;;;;8.52;4.82;;;24.60;57.50;;;;;;5019890;28;20352;-83
2022/06/13 11:49:19;;;;;;;5.90;4.35;;;24.60;57.80;;;;;;5015461;28;20026;-83
2022/06/13 11:52:00;;;;;;;7.03;4.88;;;24.50;57.80;;;;;;5071970;28;20123;-83
2022/06/13 11:54:34;;;;;;;5.68;4.57;;;24.30;58.40;;;;;;5079168;28;20047;-83
2022/06/13 11:57:31;;;;;;;11.05;5.18;;;23.90;61.10;;;;;;5081054;28;20025;-84
2022/06/13 12:00:07;;;;;;;14.18;7.55;;;23.60;63.10;;;;;;5077994;28;20043;-83
2022/06/13 12:02:39;;;;;;;8.67;6.00;;;23.10;66.10;;;;;;5073862;28;20017;-85
2022/06/13 12:05:19;;;;;;;9.30;6.78;;;22.80;67.50;;;;;;5067472;28;20300;-84
2022/06/13 12:08:02;;;;;;;7.60;6.32;;;22.60;70.00;;;;;;5074619;28;20020;-84
2022/06/13 12:10:37;;;;;;;11.52;7.28;;;21.90;71.80;;;;;;5080885;28;20035;-83
2022/06/13 12:13:15;;;;;;;14.63;8.70;;;21.50;74.80;;;;;;5098240;28;20047;-84
2022/06/13 12:15:55;;;;;;;13.45;9.45;;;21.30;76.50;;;;;;5079561;28;20025;-83
2022/06/13 12:18:33;;;;;;;16.52;12.10;;;21.10;78.80;;;;;;5070072;28;20017;-83
2022/06/13 12:21:23;;;;;;;12.80;10.07;;;21.20;81.70;;;;;;5059348;28;20509;-89
2022/06/13 12:24:08;;;;;;;11.27;8.10;;;21.30;82.10;;;;;;5077915;28;20031;-87
2022/06/13 12:26:40;;;;;;;11.25;9.02;;;21.30;81.60;;;;;;5077934;28;20037;-87
2022/06/13 12:29:41;;;;;;;11.20;8.13;;;21.40;82.00;;;;;;5081447;28;20020;-87
2022/06/13 12:32:22;;;;;;;14.32;11.63;;;20.90;84.00;;;;;;5045423;28;20156;-92
2022/06/13 12:38:04;;;;;;;14.20;12.65;;;20.20;91.10;;;;;;5098305;28;20110;-85
2022/06/13 12:40:53;;;;;;;17.63;14.02;;;20.00;92.20;;;;;;5076109;28;20104;-88
2022/06/13 12:43:59;;;;;;;22.00;14.77;;;19.80;93.40;;;;;;5070751;28;20549;-89
2022/06/13 12:46:48;;;;;;;16.17;14.48;;;19.80;94.30;;;;;;5087434;28;20067;-92
2022/06/13 12:49:45;;;;;;;17.80;15.25;;;19.70;95.30;;;;;;5059506;28;20047;-84
2022/06/13 12:52:35;;;;;;;14.60;13.10;;;19.70;96.00;;;;;;5062658;28;20037;-88
2022/06/13 12:55:04;;;;;;;15.20;12.88;;;19.70;96.50;;;;;;5064862;28;20028;-84
2022/06/13 12:57:54;;;;;;;20.27;13.35;;;19.70;97.00;;;;;;5074505;28;20084;-88
2022/06/13 13:00:53;;;;;;;15.68;14.02;;;19.80;97.30;;;;;;5078888;28;20107;-90
2022/06/13 13:03:41;;;;;;;20.90;15.13;;;19.90;98.10;;;;;;5071807;28;20103;-87
2022/06/13 13:06:16;;;;;;;17.38;14.82;;;19.70;98.50;;;;;;5044483;28;20540;-88
2022/06/13 13:09:02;;;;;;;18.63;15.38;;;19.70;99.20;;;;;;5077050;28;20032;-89
2022/06/13 13:11:46;;;;;;;16.00;14.43;;;19.90;99.60;;;;;;5058592;28;20040;-89
2022/06/13 13:14:39;;;;;;;15.23;13.65;;;20.20;99.30;;;;;;5081241;28;20052;-92
2022/06/13 13:17:34;;;;;;;13.38;12.02;;;20.40;99.00;;;;;;5056738;28;20040;-86
2022/06/13 13:20:06;;;;;;;12.38;11.10;;;20.40;98.40;;;;;;5055897;28;20029;-90
2022/06/13 13:22:46;;;;;;;14.10;11.63;;;20.20;98.40;;;;;;5078804;28;20029;-89
2022/06/13 13:25:56;;;;;;;15.15;13.65;;;20.30;98.10;;;;;;5079223;28;20417;-91
2022/06/13 13:28:55;;;;;;;16.38;14.57;;;20.50;98.30;;;;;;4997540;28;20031;-92
2022/06/13 13:31:37;;;;;;;15.52;13.75;;;20.80;97.50;;;;;;4996017;28;20042;-84
2022/06/13 13:34:29;;;;;;;19.38;14.75;;;21.00;97.20;;;;;;5001024;28;20078;-88
2022/06/13 13:37:13;;;;;;;14.23;11.93;;;21.10;97.50;;;;;;4969838;28;20167;-84
2022/06/13 13:40:10;;;;;;;12.23;11.02;;;21.20;96.80;;;;;;4979538;28;20062;-86
2022/06/13 13:42:55;;;;;;;12.23;9.10;;;21.30;96.60;;;;;;4928735;29;20032;-89
2022/06/13 13:45:48;;;;;;;12.30;9.77;;;21.30;95.30;;;;;;4926395;28;20060;-88
2022/06/13 13:48:19;;;;;;;10.63;9.65;;;21.30;95.60;;;;;;4914113;29;20096;-84
2022/06/13 13:50:56;;;;;;;9.95;8.98;;;21.30;95.10;;;;;;4922905;29;20566;-87
2022/06/13 13:53:29;;;;;;;14.73;9.48;;;21.20;94.80;;;;;;4926612;29;20139;-90
2022/06/13 13:56:07;;;;;;;11.05;9.88;;;21.10;95.10;;;;;;4929101;29;20036;-92
2022/06/13 13:58:35;;;;;;;13.32;10.02;;;21.10;95.70;;;;;;4922003;29;20131;-92
2022/06/13 14:01:07;;;;;;;13.27;10.85;;;21.20;95.00;;;;;;4920002;29;20025;-90
2022/06/13 14:03:47;;;;;;;12.43;11.13;;;21.30;95.90;;;;;;4921093;29;20044;-91
2022/06/13 14:06:31;;;;;;;14.13;10.77;;;21.50;94.90;;;;;;5000235;28;20120;-91